createdAt,value
2023-05-03T00:01:31.183Z,98.72
2023-05-03T00:03:58.197Z,95.83
2023-05-03T00:06:25.767Z,93.35
2023-05-03T00:08:53.046Z,93.13
2023-05-03T00:11:20.134Z,93.85
2023-05-03T00:13:47.182Z,93.04
2023-05-03T00:16:14.505Z,91.51
2023-05-03T00:18:41.588Z,90.38
2023-05-03T00:21:08.610Z,90.07
2023-05-03T00:23:35.682Z,91.17
2023-05-03T00:26:02.842Z,92.05
2023-05-03T00:28:29.855Z,91.47
2023-05-03T00:30:56.933Z,91.20
2023-05-03T00:33:23.951Z,89.87
2023-05-03T00:35:51.032Z,89.00
2023-05-03T00:38:18.135Z,92.01
2023-05-03T00:40:46.338Z,92.50
2023-05-03T00:43:13.884Z,91.19
2023-05-03T00:45:41.341Z,90.40
2023-05-03T00:48:08.616Z,90.48
2023-05-03T00:50:37.207Z,91.17
2023-05-03T00:53:04.582Z,91.90
2023-05-03T00:55:32.237Z,92.75
2023-05-03T00:57:59.391Z,93.30
2023-05-03T01:00:26.542Z,94.17
2023-05-03T01:02:54.527Z,96.55
2023-05-03T01:05:23.083Z,96.81
2023-05-03T01:08:09.430Z,96.78
2023-05-03T01:10:54.746Z,96.38
2023-05-03T01:13:39.723Z,96.90
2023-05-03T01:16:21.431Z,92.94
2023-05-03T01:18:51.167Z,91.06
2023-05-03T01:21:19.413Z,91.55
2023-05-03T01:23:52.596Z,92.49
2023-05-03T01:26:21.990Z,92.18
2023-05-03T01:28:49.192Z,93.23
2023-05-03T01:31:26.755Z,93.13
2023-05-03T01:34:18.471Z,93.65
2023-05-03T01:36:46.201Z,93.98
2023-05-03T01:39:21.351Z,94.19
2023-05-03T01:41:51.935Z,94.13
2023-05-03T01:44:21.805Z,94.44
2023-05-03T01:46:49.868Z,94.95
2023-05-03T01:49:16.976Z,94.65
2023-05-03T01:51:43.966Z,94.70
2023-05-03T01:54:11.547Z,93.79
2023-05-03T01:56:38.622Z,92.80
2023-05-03T01:59:05.896Z,92.91
2023-05-03T02:01:33.676Z,95.65
2023-05-03T02:04:01.045Z,95.43
2023-05-03T02:06:28.263Z,95.27
2023-05-03T02:08:59.868Z,94.51
2023-05-03T02:11:26.901Z,94.70
2023-05-03T02:13:53.969Z,94.56
2023-05-03T02:16:21.616Z,92.79
2023-05-03T02:18:48.776Z,90.77
2023-05-03T02:21:16.365Z,92.00
2023-05-03T02:23:43.445Z,91.46
2023-05-03T02:26:10.645Z,91.46
2023-05-03T02:28:38.812Z,91.47
2023-05-03T02:31:06.613Z,91.67
2023-05-03T02:33:33.891Z,91.31
2023-05-03T02:36:01.034Z,91.99
2023-05-03T02:38:28.182Z,94.33
2023-05-03T02:40:55.261Z,95.06
2023-05-03T02:43:23.198Z,94.30
2023-05-03T02:45:50.284Z,91.50
2023-05-03T02:48:17.992Z,90.46
2023-05-03T02:50:45.091Z,90.27
2023-05-03T02:53:12.632Z,91.18
2023-05-03T02:55:40.647Z,91.88
2023-05-03T02:58:07.810Z,90.62
2023-05-03T03:00:35.427Z,90.74
2023-05-03T03:03:02.844Z,91.05
2023-05-03T03:05:30.252Z,91.08
2023-05-03T03:07:57.232Z,91.99
2023-05-03T03:10:24.585Z,92.41
2023-05-03T03:12:51.612Z,91.56
2023-05-03T03:15:28.107Z,91.22
2023-05-03T03:17:58.086Z,90.18
2023-05-03T03:20:26.059Z,89.02
2023-05-03T03:22:54.660Z,90.89
2023-05-03T03:25:21.968Z,90.83
2023-05-03T03:27:49.745Z,88.89
2023-05-03T03:30:17.192Z,88.26
2023-05-03T03:32:56.984Z,88.37
2023-05-03T03:35:31.233Z,88.41
2023-05-03T03:37:58.671Z,88.44
2023-05-03T03:40:26.055Z,89.51
2023-05-03T03:42:55.427Z,87.78
2023-05-03T03:45:22.629Z,87.10
2023-05-03T03:47:51.428Z,85.26
2023-05-03T03:50:21.474Z,85.30
2023-05-03T03:52:48.525Z,86.11
2023-05-03T03:55:16.072Z,89.46
2023-05-03T03:57:46.019Z,88.10
2023-05-03T04:00:14.881Z,88.39
2023-05-03T04:02:49.171Z,88.02
2023-05-03T04:05:18.618Z,88.14
2023-05-03T04:07:46.610Z,89.98
2023-05-03T04:10:15.617Z,90.58
2023-05-03T04:12:43.470Z,87.08
2023-05-03T04:15:13.439Z,85.26
2023-05-03T04:17:41.379Z,85.91
2023-05-03T04:20:11.642Z,85.40
2023-05-03T04:22:41.324Z,86.97
2023-05-03T04:25:14.346Z,90.33
2023-05-03T04:27:45.282Z,89.49
2023-05-03T04:30:15.272Z,91.89
2023-05-03T04:32:44.602Z,94.55
2023-05-03T04:35:12.983Z,98.43
2023-05-03T04:37:44.438Z,98.93
2023-05-03T04:40:16.516Z,97.19
2023-05-03T04:42:48.472Z,94.55
2023-05-03T04:45:15.993Z,93.38
2023-05-03T04:47:43.332Z,93.91
2023-05-03T04:50:11.383Z,93.40
2023-05-03T04:52:41.766Z,94.27
2023-05-03T04:55:12.567Z,93.50
2023-05-03T04:57:40.427Z,95.41
2023-05-03T05:00:13.126Z,93.36
2023-05-03T05:02:45.472Z,90.33
2023-05-03T05:05:12.924Z,89.51
2023-05-03T05:07:39.991Z,94.04
2023-05-03T05:10:10.315Z,93.54
2023-05-03T05:12:38.102Z,93.62
2023-05-03T05:15:07.142Z,94.72
2023-05-03T05:17:35.117Z,97.97
2023-05-03T05:20:07.346Z,93.18
2023-05-03T05:22:34.997Z,91.33
2023-05-03T05:25:02.256Z,91.41
2023-05-03T05:27:30.861Z,91.87
2023-05-03T05:29:59.462Z,89.61
2023-05-03T05:32:27.216Z,91.31
2023-05-03T05:34:57.783Z,89.26
2023-05-03T05:37:27.782Z,92.46
2023-05-03T05:39:58.693Z,90.24
2023-05-03T05:42:28.797Z,88.18
2023-05-03T05:44:57.475Z,88.60
2023-05-03T05:47:25.076Z,86.00
2023-05-03T05:49:53.651Z,85.63
2023-05-03T05:52:20.686Z,80.18
2023-05-03T05:54:47.781Z,77.26
2023-05-03T05:57:14.932Z,78.29
2023-05-03T05:59:42.404Z,81.30
2023-05-03T06:02:16.906Z,73.21
2023-05-03T06:04:46.920Z,78.63
2023-05-03T06:07:15.117Z,74.21
2023-05-03T06:09:42.913Z,76.25
2023-05-03T06:12:11.209Z,74.93
2023-05-03T06:14:51.683Z,74.26
2023-05-03T06:17:29.389Z,78.53
2023-05-03T06:19:57.982Z,75.40
2023-05-03T06:22:25.570Z,70.94
2023-05-03T06:24:55.566Z,71.72
2023-05-03T06:27:22.704Z,73.72
2023-05-03T06:29:51.563Z,70.12
2023-05-03T06:32:19.494Z,68.28
2023-05-03T06:34:46.738Z,67.59
2023-05-03T06:37:14.274Z,66.05
2023-05-03T06:39:41.726Z,63.54
2023-05-03T06:42:08.956Z,63.93
2023-05-03T06:44:39.120Z,59.72
2023-05-03T06:47:06.192Z,60.05
2023-05-03T06:49:33.367Z,63.03
2023-05-03T06:52:00.479Z,62.04
2023-05-03T06:54:27.667Z,60.32
2023-05-03T06:56:54.678Z,59.33
2023-05-03T06:59:21.702Z,59.63
2023-05-03T07:01:48.868Z,56.86
2023-05-03T07:04:16.190Z,57.98
2023-05-03T07:06:55.452Z,56.99
2023-05-03T07:09:35.446Z,54.42
2023-05-03T07:12:09.267Z,59.45
2023-05-03T07:14:36.468Z,52.52
2023-05-03T07:17:03.501Z,51.59
2023-05-03T07:19:30.674Z,54.75
2023-05-03T07:21:57.697Z,50.38
2023-05-03T07:24:27.340Z,52.98
2023-05-03T07:26:54.640Z,51.00
2023-05-03T07:29:22.043Z,51.73
2023-05-03T07:31:50.829Z,50.20
2023-05-03T07:34:19.169Z,52.85
2023-05-03T07:36:46.116Z,52.58
2023-05-03T07:39:13.127Z,52.92
2023-05-03T07:41:40.205Z,54.30
2023-05-03T07:44:07.904Z,52.91
2023-05-03T07:46:35.519Z,55.00
2023-05-03T07:49:04.749Z,58.00
2023-05-03T07:51:39.220Z,55.41
2023-05-03T07:54:06.460Z,56.65
2023-05-03T07:56:46.626Z,55.69
2023-05-03T07:59:20.371Z,54.67
2023-05-03T08:01:47.362Z,56.17
2023-05-03T08:04:14.443Z,59.95
2023-05-03T08:06:42.844Z,58.92
2023-05-03T08:09:09.876Z,55.23
2023-05-03T08:11:37.023Z,61.79
2023-05-03T08:14:04.085Z,59.63
2023-05-03T08:16:31.181Z,61.14
2023-05-03T08:18:58.305Z,61.02
2023-05-03T08:21:26.302Z,57.94
2023-05-03T08:23:53.431Z,57.78
2023-05-03T08:26:22.364Z,58.96
2023-05-03T08:28:49.818Z,60.46
2023-05-03T08:31:17.732Z,60.42
2023-05-03T08:33:44.798Z,60.72
2023-05-03T08:36:11.833Z,64.64
2023-05-03T08:38:41.522Z,62.88
2023-05-03T08:41:30.819Z,64.68
2023-05-03T08:43:59.607Z,65.95
2023-05-03T08:46:28.638Z,63.99
2023-05-03T08:48:56.229Z,61.71
2023-05-03T08:51:25.135Z,61.71
2023-05-03T08:53:52.490Z,64.05
2023-05-03T08:56:40.111Z,62.70
2023-05-03T08:59:10.391Z,60.50
2023-05-03T09:01:41.407Z,60.70
2023-05-03T09:04:10.296Z,57.73
2023-05-03T09:06:38.697Z,58.20
2023-05-03T09:09:09.903Z,56.87
2023-05-03T09:11:38.914Z,60.35
2023-05-03T09:14:17.494Z,56.24
2023-05-03T09:16:46.807Z,52.77
2023-05-03T09:19:16.598Z,54.28
2023-05-03T09:21:45.556Z,55.18
2023-05-03T09:24:21.127Z,57.06
2023-05-03T09:26:50.660Z,53.67
2023-05-03T09:29:32.254Z,53.03
2023-05-03T09:32:05.748Z,52.90
2023-05-03T09:34:34.198Z,58.30
2023-05-03T09:37:01.534Z,54.24
2023-05-03T09:39:28.636Z,55.95
2023-05-03T09:41:56.724Z,54.47
2023-05-03T09:44:43.148Z,52.36
2023-05-03T09:47:11.182Z,55.62
2023-05-03T09:49:38.841Z,53.36
2023-05-03T09:52:07.372Z,53.88
2023-05-03T09:54:38.341Z,52.41
2023-05-03T09:57:07.600Z,54.05
2023-05-03T09:59:39.829Z,53.34
2023-05-03T10:02:08.468Z,50.71
2023-05-03T10:04:52.093Z,51.58
2023-05-03T10:07:22.586Z,52.70
2023-05-03T10:09:49.708Z,47.85
2023-05-03T10:12:18.093Z,52.62
2023-05-03T10:14:47.556Z,51.24
2023-05-03T10:17:42.914Z,47.38
2023-05-03T10:20:23.182Z,45.53
2023-05-03T10:23:05.560Z,48.47
2023-05-03T10:25:37.184Z,44.72
2023-05-03T10:28:06.124Z,48.75
2023-05-03T10:30:37.024Z,47.82
2023-05-03T10:33:10.158Z,48.72
2023-05-03T10:35:40.968Z,44.57
2023-05-03T10:38:21.048Z,45.43
2023-05-03T10:40:48.592Z,47.28
2023-05-03T10:43:33.439Z,45.90
2023-05-03T10:46:05.108Z,41.80
2023-05-03T10:48:33.657Z,39.97
2023-05-03T10:51:37.320Z,40.45
2023-05-03T10:54:04.923Z,41.90
2023-05-03T10:56:32.078Z,38.93
2023-05-03T10:58:59.273Z,40.86
2023-05-03T11:01:28.232Z,38.14
2023-05-03T11:04:01.070Z,37.05
2023-05-03T11:06:41.385Z,38.27
2023-05-03T11:09:12.159Z,38.26
2023-05-03T11:11:41.603Z,36.75
2023-05-03T11:14:10.187Z,35.39
2023-05-03T11:16:41.252Z,40.11
2023-05-03T11:19:08.552Z,36.98
2023-05-03T11:21:36.555Z,40.04
2023-05-03T11:24:03.682Z,40.94
2023-05-03T11:26:36.231Z,40.03
2023-05-03T11:29:03.786Z,40.94
2023-05-03T11:31:31.990Z,42.31
2023-05-03T11:33:59.427Z,43.47
2023-05-03T11:36:28.086Z,43.77
2023-05-03T11:38:55.219Z,44.14
2023-05-03T11:41:22.371Z,43.55
2023-05-03T11:44:00.470Z,44.42
2023-05-03T11:46:35.788Z,46.50
2023-05-03T11:49:03.570Z,44.22
2023-05-03T11:51:31.507Z,45.15
2023-05-03T11:54:13.036Z,43.90
2023-05-03T11:56:47.920Z,42.74
2023-05-03T11:59:15.017Z,41.76
2023-05-03T12:01:43.211Z,41.87
2023-05-03T12:04:13.030Z,42.65
2023-05-03T12:06:42.438Z,41.80
2023-05-03T12:09:15.649Z,41.38
2023-05-03T12:11:44.914Z,41.86
2023-05-03T12:14:12.839Z,41.47
2023-05-03T12:16:51.816Z,39.85
2023-05-03T12:19:28.054Z,42.20
2023-05-03T12:22:17.838Z,41.17
2023-05-03T12:24:49.321Z,44.54
2023-05-03T12:27:19.311Z,44.93
2023-05-03T12:29:47.557Z,43.13
2023-05-03T12:32:15.211Z,44.53
2023-05-03T12:34:43.349Z,43.03
2023-05-03T12:37:16.752Z,44.75
2023-05-03T12:39:47.367Z,44.44
2023-05-03T12:42:22.015Z,42.65
2023-05-03T12:44:50.873Z,46.35
2023-05-03T12:47:26.954Z,43.24
2023-05-03T12:49:59.614Z,42.72
2023-05-03T12:54:57.196Z,43.23
2023-05-03T12:57:24.762Z,45.14
2023-05-03T13:00:02.248Z,46.22
2023-05-03T13:05:01.672Z,46.38
2023-05-03T13:07:31.047Z,47.16
2023-05-03T13:12:31.125Z,49.30
2023-05-03T13:14:58.277Z,49.79
2023-05-03T13:17:25.429Z,46.97
2023-05-03T13:19:53.328Z,50.27
2023-05-03T13:22:20.502Z,47.71
2023-05-03T13:24:48.195Z,47.18
2023-05-03T13:27:16.746Z,48.23
2023-05-03T13:29:46.152Z,47.00
2023-05-03T13:32:14.626Z,48.42
2023-05-03T13:34:41.603Z,50.14
2023-05-03T13:37:08.564Z,50.75
2023-05-03T13:39:35.609Z,51.28
2023-05-03T13:42:03.689Z,50.11
2023-05-03T13:44:30.794Z,51.80
2023-05-03T13:46:57.826Z,51.59
2023-05-03T13:49:25.693Z,52.04
2023-05-03T13:51:52.886Z,52.83
2023-05-03T13:54:19.996Z,51.01
2023-05-03T13:56:48.415Z,52.76
2023-05-03T13:59:16.484Z,53.10
2023-05-03T14:01:43.740Z,55.56
2023-05-03T14:04:11.105Z,53.81
2023-05-03T14:06:40.241Z,53.26
2023-05-03T14:09:08.162Z,51.38
2023-05-03T14:11:35.598Z,53.17
2023-05-03T14:14:03.368Z,52.77
2023-05-03T14:16:40.838Z,55.05
2023-05-03T14:19:10.801Z,53.44
2023-05-03T14:21:38.529Z,53.36
2023-05-03T14:24:06.842Z,51.82
2023-05-03T14:26:37.206Z,53.10
2023-05-03T14:29:05.899Z,52.73
2023-05-03T14:31:34.395Z,53.16
2023-05-03T14:34:01.527Z,55.22
2023-05-03T14:36:36.127Z,57.00
2023-05-03T14:39:04.452Z,55.49
2023-05-03T14:41:33.543Z,56.02
2023-05-03T14:44:02.232Z,58.21
2023-05-03T14:46:29.397Z,59.23
2023-05-03T14:48:56.384Z,61.12
2023-05-03T14:51:24.095Z,61.42
2023-05-03T14:53:51.498Z,64.06
2023-05-03T14:56:18.559Z,63.71
2023-05-03T14:58:45.627Z,63.33
2023-05-03T15:01:22.332Z,64.24
2023-05-03T15:03:50.018Z,64.58
2023-05-03T15:06:24.566Z,63.12
2023-05-03T15:08:52.469Z,64.53
2023-05-03T15:11:19.697Z,65.03
2023-05-03T15:13:47.982Z,68.08
2023-05-03T15:16:15.180Z,66.47
2023-05-03T15:18:44.076Z,68.58
2023-05-03T15:21:12.833Z,69.53
2023-05-03T15:23:39.899Z,69.39
2023-05-03T15:26:07.223Z,68.92
2023-05-03T15:28:34.224Z,72.00
2023-05-03T15:31:01.996Z,73.16
2023-05-03T15:33:29.121Z,73.41
2023-05-03T15:35:56.584Z,73.96
2023-05-03T15:38:23.720Z,75.51
2023-05-03T15:40:50.814Z,75.60
2023-05-03T15:43:18.017Z,74.87
2023-05-03T15:45:45.012Z,72.08
2023-05-03T15:48:12.081Z,72.84
2023-05-03T15:50:39.059Z,75.85
2023-05-03T15:53:06.051Z,73.37
2023-05-03T15:55:33.444Z,73.28
2023-05-03T15:58:00.411Z,73.27
2023-05-03T16:00:27.879Z,73.48
2023-05-03T16:02:55.042Z,73.00
2023-05-03T16:05:23.206Z,72.14
2023-05-03T16:07:50.974Z,72.67
2023-05-03T16:10:18.335Z,72.12
2023-05-03T16:12:45.391Z,72.54
2023-05-03T16:15:12.676Z,69.23
2023-05-03T16:17:39.741Z,69.83
2023-05-03T16:20:10.893Z,71.18
2023-05-03T16:22:38.141Z,72.74
2023-05-03T16:25:10.757Z,73.49
2023-05-03T16:27:40.207Z,75.48
2023-05-03T16:30:08.938Z,73.42
2023-05-03T16:32:37.066Z,71.63
2023-05-03T16:35:04.635Z,72.66
2023-05-03T16:37:37.268Z,75.46
2023-05-03T16:40:13.912Z,75.05
2023-05-03T16:42:41.678Z,79.05
2023-05-03T16:45:10.853Z,81.97
2023-05-03T16:47:38.619Z,80.51
2023-05-03T16:50:09.610Z,78.69
2023-05-03T16:52:40.530Z,80.98
2023-05-03T16:55:09.425Z,81.53
2023-05-03T16:57:42.734Z,79.76
2023-05-03T17:00:11.133Z,79.07
2023-05-03T17:02:39.980Z,79.81
2023-05-03T17:05:12.778Z,76.35
2023-05-03T17:07:41.966Z,79.69
2023-05-03T17:10:09.612Z,83.29
2023-05-03T17:12:37.132Z,81.84
2023-05-03T17:15:04.665Z,80.64
2023-05-03T17:17:32.783Z,78.79
2023-05-03T17:19:59.843Z,77.40
2023-05-03T17:22:26.933Z,76.40
2023-05-03T17:24:55.333Z,72.08
2023-05-03T17:27:24.360Z,74.36
2023-05-03T17:29:51.767Z,76.99
2023-05-03T17:32:19.115Z,77.77
2023-05-03T17:34:46.353Z,77.29
2023-05-03T17:37:13.376Z,76.08
2023-05-03T17:39:40.425Z,72.73
2023-05-03T17:42:08.574Z,72.97
2023-05-03T17:44:35.699Z,74.62
2023-05-03T17:47:04.654Z,76.44
2023-05-03T17:49:34.527Z,74.95
2023-05-03T17:52:01.542Z,75.93
2023-05-03T17:54:29.514Z,75.93
2023-05-03T17:56:57.140Z,71.23
2023-05-03T17:59:24.147Z,74.96
2023-05-03T18:01:51.127Z,78.18
2023-05-03T18:04:18.153Z,79.08
2023-05-03T18:06:45.743Z,75.85
2023-05-03T18:09:13.351Z,75.99
2023-05-03T18:11:41.498Z,78.55
2023-05-03T18:14:08.545Z,79.98
2023-05-03T18:16:36.881Z,79.82
2023-05-03T18:19:04.431Z,80.30
2023-05-03T18:21:31.491Z,83.16
2023-05-03T18:23:58.592Z,82.74
2023-05-03T18:26:25.553Z,80.50
2023-05-03T18:28:53.712Z,81.41
2023-05-03T18:31:21.639Z,79.53
2023-05-03T18:33:49.118Z,78.84
2023-05-03T18:36:17.648Z,77.79
2023-05-03T18:38:47.048Z,79.31
2023-05-03T18:41:15.202Z,82.03
2023-05-03T18:43:43.639Z,82.04
2023-05-03T18:46:11.515Z,83.54
2023-05-03T18:48:38.553Z,83.75
2023-05-03T18:51:05.836Z,83.57
2023-05-03T18:53:34.486Z,85.22
2023-05-03T18:56:04.959Z,86.62
2023-05-03T18:58:32.528Z,87.85
2023-05-03T19:01:00.527Z,87.71
2023-05-03T19:03:31.622Z,88.58
2023-05-03T19:06:04.256Z,88.90
2023-05-03T19:08:31.992Z,88.23
2023-05-03T19:11:08.272Z,85.31
2023-05-03T19:13:36.129Z,87.22
2023-05-03T19:16:04.095Z,85.74
2023-05-03T19:18:32.065Z,83.89
2023-05-03T19:20:59.142Z,83.99
2023-05-03T19:23:26.225Z,82.48
2023-05-03T19:25:53.501Z,82.62
2023-05-03T19:28:20.683Z,82.44
2023-05-03T19:30:51.623Z,81.59
2023-05-03T19:33:22.098Z,81.46
2023-05-03T19:35:49.234Z,84.40
2023-05-03T19:38:16.150Z,87.25
2023-05-03T19:40:58.674Z,85.83
2023-05-03T19:43:25.926Z,88.06
2023-05-03T19:45:53.151Z,89.43
2023-05-03T19:48:20.182Z,90.89
2023-05-03T19:50:47.744Z,90.98
2023-05-03T19:53:14.824Z,90.66
2023-05-03T19:55:41.960Z,88.63
2023-05-03T19:58:08.957Z,88.78
2023-05-03T20:00:35.953Z,86.34
2023-05-03T20:03:02.986Z,86.66
2023-05-03T20:05:30.249Z,88.86
2023-05-03T20:07:57.208Z,86.71
2023-05-03T20:10:24.193Z,86.59
2023-05-03T20:12:51.199Z,87.06
2023-05-03T20:15:18.245Z,87.47
2023-05-03T20:17:45.232Z,89.74
2023-05-03T20:20:13.260Z,91.22
2023-05-03T20:22:40.891Z,87.02
2023-05-03T20:25:08.500Z,89.14
2023-05-03T20:27:35.498Z,89.33
2023-05-03T20:30:06.005Z,86.06
2023-05-03T20:32:36.371Z,84.55
2023-05-03T20:35:13.561Z,87.87
2023-05-03T20:37:40.581Z,87.20
2023-05-03T20:40:09.465Z,85.66
2023-05-03T20:42:36.693Z,88.29
2023-05-03T20:45:04.042Z,84.16
2023-05-03T20:47:31.172Z,84.30
2023-05-03T20:49:58.277Z,84.12
2023-05-03T20:52:25.424Z,85.97
2023-05-03T20:54:52.519Z,83.09
2023-05-03T20:57:19.576Z,81.20
2023-05-03T20:59:46.700Z,80.63
2023-05-03T21:02:13.726Z,78.24
2023-05-03T21:04:41.091Z,77.68
2023-05-03T21:07:08.068Z,78.55
2023-05-03T21:09:35.144Z,78.81
2023-05-03T21:12:02.368Z,79.58
2023-05-03T21:14:29.773Z,84.02
2023-05-03T21:16:56.843Z,84.77
2023-05-03T21:19:23.847Z,84.25
2023-05-03T21:21:51.028Z,84.95
2023-05-03T21:24:18.061Z,86.59
2023-05-03T21:26:45.085Z,86.54
2023-05-03T21:29:12.288Z,85.32
2023-05-03T21:31:40.311Z,85.96
2023-05-03T21:34:07.500Z,85.25
2023-05-03T21:36:34.496Z,86.13
2023-05-03T21:39:01.528Z,86.35
2023-05-03T21:41:28.578Z,85.02
2023-05-03T21:43:55.535Z,81.77
2023-05-03T21:46:22.857Z,80.70
2023-05-03T21:48:50.030Z,79.50
2023-05-03T21:51:21.953Z,80.10
2023-05-03T21:53:49.914Z,79.32
2023-05-03T21:56:16.998Z,79.66
2023-05-03T21:58:47.119Z,78.20
2023-05-03T22:01:16.849Z,77.85
2023-05-03T22:03:43.972Z,80.30
2023-05-03T22:06:11.131Z,81.11
2023-05-03T22:08:38.601Z,80.80
2023-05-03T22:11:07.193Z,82.73
2023-05-03T22:13:39.404Z,85.02
2023-05-03T22:16:12.455Z,84.56
2023-05-03T22:18:39.668Z,86.28
2023-05-03T22:21:07.429Z,85.78
2023-05-03T22:23:34.549Z,83.77
2023-05-03T22:26:01.561Z,85.77
2023-05-03T22:28:28.870Z,87.02
2023-05-03T22:30:56.719Z,86.96
2023-05-03T22:33:23.741Z,88.06
2023-05-03T22:35:50.798Z,87.57
2023-05-03T22:38:17.919Z,85.65
2023-05-03T22:40:45.038Z,89.46
2023-05-03T22:43:12.218Z,89.53
2023-05-03T22:45:39.486Z,91.77
2023-05-03T22:48:06.944Z,91.35
2023-05-03T22:50:33.924Z,90.04
2023-05-03T22:53:00.862Z,88.80
2023-05-03T22:55:28.272Z,86.99
2023-05-03T22:57:55.353Z,82.68
2023-05-03T23:00:22.656Z,81.68
2023-05-03T23:02:49.886Z,83.18
2023-05-03T23:05:17.146Z,84.43
2023-05-03T23:07:44.193Z,84.14
2023-05-03T23:10:11.524Z,86.79
2023-05-03T23:12:39.458Z,85.35
2023-05-03T23:15:07.279Z,82.87
2023-05-03T23:17:34.572Z,83.54
2023-05-03T23:20:01.667Z,86.23
2023-05-03T23:22:28.774Z,88.57
2023-05-03T23:24:55.766Z,90.85
2023-05-03T23:29:51.023Z,89.79
2023-05-03T23:32:18.445Z,87.25
2023-05-03T23:34:45.836Z,89.22
2023-05-03T23:37:12.792Z,92.71
2023-05-03T23:39:46.986Z,96.26
2023-05-03T23:42:14.228Z,97.39
2023-05-03T23:44:53.816Z,99.47
2023-05-03T23:47:21.955Z,100.00
2023-05-03T23:49:49.037Z,100.00
2023-05-03T23:52:19.172Z,100.00
2023-05-03T23:54:46.600Z,100.00
2023-05-03T23:57:13.638Z,100.00
2023-05-03T23:59:40.617Z,100.00
